• Join FlightAware (Why Join?)
  • Login
  • US Flag 
08:00AM EDT


 

Airport Tracker/Info


-or-


 

Live Flight TrackerFlight Track Log ✈ SWA2403 ✈ 18-Apr-2013 ✈ KBWI - KSDF

Flight Track Log - Related Links

Times and Time Zones

All times are in EDT time to prevent confusion due to time zone crossing. See the SWA2403 flight status page for this flight to view local times or setup timezone preferences in your user account.

Time Position Orientation Groundspeed Altitude Reporting Facility
EDT Latitude Longitude Course Direction KTS MPH feet Rate Location/Type
02:47PM 39.1333 -76.6500 288° West 189 217 2,700  Level Potomac TRACON
02:48PM 39.1500 -76.7167 288° West 241 277 5,300 2,640 Climbing Potomac TRACON
02:49PM 39.1833 -76.8000 297° West 269 310 8,000 3,240 Climbing Potomac TRACON
02:50PM 39.2000 -76.8833 284° West 281 323 11,900 3,120 Climbing Potomac TRACON
02:51PM 39.2167 -77.0000 280° West 308 354 14,300 2,520 Climbing Potomac TRACON
02:53PM 39.1464 -77.2108 247° West 337 388 19,300 2,580 Climbing Washington Center
02:54PM 39.0803 -77.3108 230° Southwest 352 405 21,900 2,460 Climbing Washington Center
02:55PM 39.0472 -77.4464 253° West 369 425 24,300 2,100 Climbing Washington Center
02:56PM 39.0158 -77.5714 252° West 401 461 26,200 1,620 Climbing Washington Center
02:57PM 38.9758 -77.7303 252° West 426 490 27,600 1,680 Climbing Washington Center
02:58PM 38.9422 -77.8575 251° West 426 490 29,600 1,980 Climbing Washington Center
02:59PM 38.9058 -78.0031 252° West 426 490 31,600 1,860 Climbing Washington Center
03:00PM 38.8717 -78.1461 253° West 426 490 33,400 1,740 Climbing Washington Center
03:01PM 38.8539 -78.2919 261° West 420 483 35,100 1,380 Climbing Washington Center
03:02PM 38.8506 -78.4411 268° West 420 483 36,200 1,080 Climbing Washington Center
03:03PM 38.8486 -78.5983 269° West 425 489 37,300 900 Climbing Washington Center
03:04PM 38.8489 -78.7503 270° West 430 495 38,000 300 Climbing Washington Center
03:05PM 38.8469 -78.9022 269° West 436 502 38,000  Level Washington Center
03:06PM 38.8428 -79.0539 268° West 436 502 38,000  Level Washington Center
03:07PM 38.8403 -79.2058 269° West 436 502 38,000  Level Washington Center
03:08PM 38.8128 -79.3536 257° West 436 502 38,000  Level Washington Center
03:09PM 38.7872 -79.5014 258° West 431 496 38,000  Level Washington Center
03:10PM 38.7586 -79.6703 258° West 431 496 38,000  Level Washington Center
03:11PM 38.7333 -79.8019 256° West 431 496 38,000  Level Washington Center
03:12PM 38.7072 -79.9494 257° West 431 496 38,000  Level Washington Center
03:14PM 38.6497 -80.2339 256° West 427 491 38,000  Level Indianapolis Center
03:15PM 38.6228 -80.3817 257° West 426 490 38,000  Level Indianapolis Center
03:16PM 38.5944 -80.5300 256° West 427 491 38,000  Level Indianapolis Center
03:17PM 38.5600 -80.7092 256° West 431 496 38,000 -660 Level Indianapolis Center
03:18PM 38.5317 -80.8553 256° West 425 489 36,700 -1,020 Descending Indianapolis Center
03:19PM 38.5031 -81.0000 256° West 419 482 36,000 -360 Descending Indianapolis Center
03:20PM 38.4742 -81.1475 256° West 424 488 36,000  Level Indianapolis Center
03:21PM 38.4450 -81.2942 256° West 422 486 36,000 -300 Level Indianapolis Center
03:22PM 38.4150 -81.4422 256° West 424 488 35,400 -780 Descending Indianapolis Center
03:23PM 38.3853 -81.5928 256° West 432 497 34,400 -720 Descending Indianapolis Center
03:24PM 38.3544 -81.7431 255° West 433 498 34,000 -240 Descending Indianapolis Center
03:25PM 38.3158 -81.8883 251° West 432 497 34,000 -360 Level Indianapolis Center
03:26PM 38.2758 -82.0311 250° West 429 494 33,300 -840 Descending Indianapolis Center
03:27PM 38.2361 -82.1733 250° West 426 490 32,300 -660 Descending Indianapolis Center
03:28PM 38.1889 -82.3422 250° West 423 487 32,000 -180 Descending Indianapolis Center
03:29PM 38.1492 -82.4833 250° West 424 488 32,000  Level Indianapolis Center
03:30PM 38.1117 -82.6208 251° West 420 483 32,000  Level Indianapolis Center
03:31PM 38.1181 -82.7678 273° West 419 482 32,000  Level Indianapolis Center
03:32PM 38.1328 -82.9131 277° West 417 480 32,000  Level Indianapolis Center
03:33PM 38.1503 -83.0836 277° West 416 479 32,000  Level Indianapolis Center
03:34PM 38.1642 -83.2303 277° West 418 481 32,000  Level Indianapolis Center
03:35PM 38.1786 -83.3733 277° West 413 475 32,000  Level Indianapolis Center
03:36PM 38.1928 -83.5169 277° West 410 472 32,000 -180 Level Indianapolis Center
03:38PM 38.2061 -83.6589 277° West 404 465 31,700 -660 Descending Indianapolis Center
03:39PM 38.2194 -83.8006 277° West 405 466 30,700 -1,680 Descending Indianapolis Center
03:40PM 38.2347 -83.9636 277° West 401 461 28,300 -2,340 Descending Indianapolis Center
03:41PM 38.2475 -84.1008 277° West 393 452 26,000 -2,100 Descending Indianapolis Center
03:42PM 38.2586 -84.2358 276° West 386 444 24,000 -1,020 Descending Indianapolis Center
03:43PM 38.2697 -84.3633 276° West 365 420 24,000 -1,140 Level Indianapolis Center
03:44PM 38.2819 -84.4914 277° West 365 420 21,700 -2,400 Descending Indianapolis Center
03:45PM 38.2939 -84.6228 277° West 372 428 19,100 -2,640 Descending Indianapolis Center
03:46PM 38.3025 -84.7522 275° West 369 425 16,400 -2,700 Descending Indianapolis Center
03:47PM 38.3147 -84.9003 276° West 363 418 13,600 -2,400 Descending Indianapolis Center
03:48PM 38.3258 -85.0181 277° West 342 394 11,500 -1,620 Descending Indianapolis Center
03:49PM 38.3014 -85.1183 253° West 305 351 10,400 -960 Descending Indianapolis Center
03:50PM 38.2786 -85.1778 244° Southwest 255 293 9,900 -780 Descending FAA TRACON SMA TRACON (SMA)
03:50PM 38.2806 -85.2053 275° West 253 291 9,600 -1,080 Descending FAA TRACON SMA TRACON (SMA)
03:50PM 38.2869 -85.2386 284° West 253 291 9,200 -1,380 Descending FAA TRACON SMA TRACON (SMA)
03:51PM 38.2931 -85.2650 286° West 252 290 8,700 -1,560 Descending FAA TRACON SMA TRACON (SMA)
03:51PM 38.2978 -85.2917 283° West 251 289 8,200 -1,500 Descending FAA TRACON SMA TRACON (SMA)
03:51PM 38.3044 -85.3250 284° West 252 290 7,700 -1,500 Descending FAA TRACON SMA TRACON (SMA)
03:52PM 38.3100 -85.3517 285° West 252 290 7,200 -1,320 Descending FAA TRACON SMA TRACON (SMA)
03:52PM 38.3153 -85.3783 284° West 252 290 6,800 -1,500 Descending FAA TRACON SMA TRACON (SMA)
03:52PM 38.3217 -85.4114 284° West 251 289 6,200 -1,380 Descending FAA TRACON SMA TRACON (SMA)
03:53PM 38.3272 -85.4389 284° West 254 292 5,900 -480 Descending FAA TRACON SMA TRACON (SMA)
03:53PM 38.3322 -85.4644 284° West 250 288 5,900  Level FAA TRACON SMA TRACON (SMA)
03:53PM 38.3392 -85.4969 285° West 246 283 5,900  Level FAA TRACON SMA TRACON (SMA)
03:54PM 38.3442 -85.5228 284° West 245 282 5,900  Level FAA TRACON SMA TRACON (SMA)
03:54PM 38.3508 -85.5550 285° West 245 282 5,900  Level FAA TRACON SMA TRACON (SMA)
03:54PM 38.3561 -85.5806 285° West 243 280 5,900  Level FAA TRACON SMA TRACON (SMA)
03:55PM 38.3617 -85.6064 285° West 245 282 5,900 -180 Level FAA TRACON SMA TRACON (SMA)
03:55PM 38.3619 -85.6300 271° West 229 264 5,800 -1,260 Descending FAA TRACON SMA TRACON (SMA)
03:55PM 38.3592 -85.6589 263° West 213 245 5,100 -1,500 Descending FAA TRACON SMA TRACON (SMA)
03:56PM 38.3572 -85.6822 264° West 214 246 4,800 -1,200 Descending FAA TRACON SMA TRACON (SMA)
03:56PM 38.3553 -85.7047 264° West 210 242 4,300 -1,500 Descending FAA TRACON SMA TRACON (SMA)
03:56PM 38.3503 -85.7328 257° West 211 243 3,800 -1,500 Descending FAA TRACON SMA TRACON (SMA)
03:57PM 38.3394 -85.7494 230° Southwest 207 238 3,300 -1,260 Descending FAA TRACON SMA TRACON (SMA)
03:57PM 38.3250 -85.7597 209° Southwest 198 228 3,000 -1,080 Descending FAA TRACON SMA TRACON (SMA)
03:57PM 38.3058 -85.7650 192° South 186 214 2,600 -900 Descending FAA TRACON SMA TRACON (SMA)
03:58PM 38.2900 -85.7636 176° South 185 213 2,400 -480 Descending FAA TRACON SMA TRACON (SMA)
03:58PM 38.2753 -85.7614 173° South 177 204 2,300 -780 Descending FAA TRACON SMA TRACON (SMA)
03:58PM 38.2572 -85.7556 166° South 172 198 1,900 -780 Descending FAA TRACON SMA TRACON (SMA)
03:59PM 38.2444 -85.7503 162° South 164 189 1,800 -480 Descending FAA TRACON SMA TRACON (SMA)
03:59PM 38.2328 -85.7464 165° South 146 168 1,600 -900 Descending FAA TRACON SMA TRACON (SMA)
03:59PM 38.2197 -85.7422 166° South 126 145 1,200 -900 Descending FAA TRACON SMA TRACON (SMA)
04:00PM 38.2094 -85.7389 166° South 122 140 1,000 -780 Descending FAA TRACON SMA TRACON (SMA)
04:00PM 38.1997 -85.7356 165° South 120 138 700 -600 Descending FAA TRACON SMA TRACON (SMA)
04:00PM 38.1900 -85.7319 164° South 115 132 600 -360 Descending FAA TRACON SMA TRACON (SMA)
04:02PM 38.1667 -85.7333 200° South  Level FlightAware Approximate